Time;durP1;ratioP1;P1;durP2;ratioP2;P2;SDS_P1;SDS_P2;PMS_P1;PMS_P2;Temp;Humidity;BMP_temperature;BMP_pressure;BME280_temperature;BME280_humidity;BME280_pressure;Samples;Min_cycle;Max_cycle;Signal;HPM_P1;HPM_P2
2022/12/13 00:01:16;;;;;;;26.63;18.13;;;;;;;-6.19;100.00;101068.22;5306025;28;20032;-77
2022/12/13 00:03:47;;;;;;;32.93;17.60;;;;;;;-6.25;100.00;101067.84;5304981;28;20046;-77
2022/12/13 00:06:19;;;;;;;31.33;18.47;;;;;;;-6.29;100.00;101063.41;5305405;28;20270;-77
2022/12/13 00:08:51;;;;;;;27.07;17.97;;;;;;;-6.30;100.00;101064.19;5305221;28;20174;-76
2022/12/13 00:11:22;;;;;;;30.30;17.70;;;;;;;-6.33;100.00;101067.41;5287461;28;20036;-75
2022/12/13 00:13:54;;;;;;;29.07;17.10;;;;;;;-6.36;100.00;101058.72;5286819;28;20114;-75
2022/12/13 00:16:26;;;;;;;26.67;17.80;;;;;;;-6.41;100.00;101061.00;5306160;28;20027;-75
2022/12/13 00:18:59;;;;;;;31.92;17.92;;;;;;;-6.44;100.00;101060.81;5307250;28;20047;-75
2022/12/13 00:21:32;;;;;;;30.63;18.10;;;;;;;-6.44;100.00;101060.81;5305685;28;20035;-75
2022/12/13 00:24:05;;;;;;;32.75;19.45;;;;;;;-6.50;100.00;101047.78;5305345;28;20034;-75
2022/12/13 00:26:37;;;;;;;26.98;17.05;;;;;;;-6.52;100.00;101050.22;5305600;28;20036;-76
2022/12/13 00:29:10;;;;;;;29.67;17.77;;;;;;;-6.54;100.00;101051.75;5286664;28;20490;-75
2022/12/13 00:31:41;;;;;;;34.72;18.30;;;;;;;-6.58;100.00;101054.03;5305866;28;20269;-76
2022/12/13 00:34:12;;;;;;;30.40;17.37;;;;;;;-6.59;100.00;101053.16;5286933;28;20036;-76
2022/12/13 00:36:44;;;;;;;28.93;18.17;;;;;;;-6.58;100.00;101056.56;5286863;28;20056;-76
2022/12/13 00:39:16;;;;;;;26.63;16.07;;;;;;;-6.64;100.00;101045.25;5304737;28;20032;-77
2022/12/13 00:41:47;;;;;;;28.07;17.57;;;;;;;-6.64;100.00;101050.34;5287129;28;20115;-76
2022/12/13 00:44:19;;;;;;;27.03;17.23;;;;;;;-6.64;100.00;101059.63;5287513;28;20471;-76
2022/12/13 00:46:50;;;;;;;31.50;17.37;;;;;;;-6.68;100.00;101058.56;5305372;28;20028;-75
2022/12/13 00:49:22;;;;;;;30.17;18.13;;;;;;;-6.70;100.00;101052.50;5306038;28;20614;-76
2022/12/13 00:51:53;;;;;;;29.07;18.13;;;;;;;-6.71;100.00;101052.41;5306042;28;20050;-76
2022/12/13 00:54:25;;;;;;;31.07;17.43;;;;;;;-6.73;100.00;101047.22;5305602;28;20040;-76
2022/12/13 00:56:56;;;;;;;31.07;17.87;;;;;;;-6.75;100.00;101043.72;5254541;28;20032;-77
2022/12/13 00:59:28;;;;;;;33.00;18.80;;;;;;;-6.81;100.00;101036.66;5305508;28;20107;-77
2022/12/13 01:01:59;;;;;;;34.70;19.43;;;;;;;-6.84;100.00;101044.06;5306729;28;20063;-77
2022/12/13 01:04:31;;;;;;;30.73;18.20;;;;;;;-6.85;100.00;101046.50;5307716;28;20107;-76
2022/12/13 01:07:02;;;;;;;30.60;18.77;;;;;;;-6.88;100.00;101036.16;5310518;28;20032;-77
2022/12/13 01:09:33;;;;;;;31.27;18.20;;;;;;;-6.91;100.00;101043.59;5293130;28;20114;-77
2022/12/13 01:12:05;;;;;;;34.77;17.70;;;;;;;-6.97;100.00;101041.53;5314983;28;20092;-77
2022/12/13 01:14:39;;;;;;;30.10;18.30;;;;;;;-6.97;100.00;101039.91;5314595;28;20032;-77
2022/12/13 01:17:10;;;;;;;34.50;18.30;;;;;;;-7.02;100.00;101036.22;5314033;28;20024;-77
2022/12/13 01:19:42;;;;;;;28.07;17.80;;;;;;;-7.06;100.00;101031.72;5314299;28;20024;-77
2022/12/13 01:22:13;;;;;;;28.67;18.27;;;;;;;-7.06;100.00;101031.72;5314199;28;20043;-74
2022/12/13 01:24:45;;;;;;;30.17;18.40;;;;;;;-7.11;100.00;101035.63;5293310;28;20035;-76
2022/12/13 01:27:16;;;;;;;32.00;17.20;;;;;;;-7.13;100.00;101033.75;5294857;28;20047;-75
2022/12/13 01:29:48;;;;;;;28.00;16.73;;;;;;;-7.16;100.00;101026.88;5276220;28;20028;-76
2022/12/13 01:32:19;;;;;;;35.37;18.97;;;;;;;-7.20;100.00;101030.84;5291971;28;20028;-75
2022/12/13 01:34:51;;;;;;;31.13;18.60;;;;;;;-7.21;100.00;101035.81;5309458;28;20050;-78
2022/12/13 01:37:22;;;;;;;27.53;17.17;;;;;;;-7.21;100.00;101038.34;5309003;28;20138;-78
2022/12/13 01:39:53;;;;;;;29.63;17.60;;;;;;;-7.25;100.00;101036.41;5309259;28;20139;-75
2022/12/13 01:42:25;;;;;;;25.47;16.33;;;;;;;-7.27;100.00;101041.38;5309488;28;20028;-76
2022/12/13 01:45:00;;;;;;;27.63;17.30;;;;;;;-7.27;100.00;101040.53;5290423;28;20431;-77
2022/12/13 01:47:31;;;;;;;32.22;18.23;;;;;;;-7.29;100.00;101048.03;5290429;28;20051;-76
2022/12/13 01:50:12;;;;;;;29.50;18.60;;;;;;;-7.30;100.00;101043.72;5308040;28;20113;-76
2022/12/13 01:52:46;;;;;;;31.10;18.23;;;;;;;-7.31;100.00;101048.69;5308637;28;20052;-76
2022/12/13 01:55:21;;;;;;;31.88;18.67;;;;;;;-7.31;100.00;101046.16;5308390;28;20565;-76
2022/12/13 01:57:56;;;;;;;33.58;18.20;;;;;;;-7.33;100.00;101041.88;5307767;28;20044;-75
2022/12/13 02:00:28;;;;;;;29.23;19.25;;;;;;;-7.35;100.00;101040.03;5307448;28;20035;-76
2022/12/13 02:03:01;;;;;;;29.63;18.97;;;;;;;-7.37;100.00;101044.13;5308386;28;20032;-75
2022/12/13 02:05:38;;;;;;;28.02;18.45;;;;;;;-7.37;100.00;101039.94;5289694;28;20039;-75
2022/12/13 02:08:12;;;;;;;28.58;17.45;;;;;;;-7.43;100.00;101041.19;5307987;28;20341;-75
2022/12/13 02:10:44;;;;;;;33.63;18.42;;;;;;;-7.40;100.00;101034.66;5307375;28;20027;-77
2022/12/13 02:13:16;;;;;;;30.35;18.05;;;;;;;-7.43;100.00;101038.66;5307818;28;20043;-76
2022/12/13 02:16:15;;;;;;;29.17;19.87;;;;;;;-7.47;100.00;101030.00;5307266;28;20036;-76
2022/12/13 02:19:11;;;;;;;33.30;18.40;;;;;;;-7.48;100.00;101038.38;5307562;28;20024;-75
2022/12/13 02:22:14;;;;;;;30.13;18.55;;;;;;;-7.50;100.00;101029.81;5306671;28;20058;-76
2022/12/13 02:24:49;;;;;;;34.45;18.52;;;;;;;-7.49;100.00;101039.13;5289313;28;20060;-76
2022/12/13 02:27:23;;;;;;;29.77;18.10;;;;;;;-7.54;100.00;101032.91;5307767;28;20496;-76
2022/12/13 02:30:21;;;;;;;31.38;18.38;;;;;;;-7.56;100.00;101037.88;5308375;28;20193;-76
2022/12/13 02:33:07;;;;;;;32.83;18.92;;;;;;;-7.57;100.00;101032.72;5307853;28;20020;-75
2022/12/13 02:35:55;;;;;;;31.90;20.15;;;;;;;-7.55;100.00;101036.22;5289081;28;20058;-75
2022/12/13 02:38:57;;;;;;;34.33;20.83;;;;;;;-7.59;100.00;101032.63;5291070;28;20482;-75
2022/12/13 02:41:36;;;;;;;33.72;19.08;;;;;;;-7.62;100.00;101029.00;5307568;28;20039;-76
2022/12/13 02:44:19;;;;;;;31.73;18.50;;;;;;;-7.61;100.00;101025.72;5289205;28;20368;-76
2022/12/13 02:47:08;;;;;;;;;;;;;;;-7.65;100.00;101028.81;5307243;28;20056;-76
2022/12/13 02:49:45;;;;;;;33.33;18.58;;;;;;;-7.62;100.00;101019.75;5306626;28;19912;-77
2022/12/13 02:52:19;;;;;;;33.90;20.42;;;;;;;-7.62;100.00;101014.69;5306655;28;20063;-78
2022/12/13 02:54:53;;;;;;;35.05;19.48;;;;;;;-7.63;100.00;101012.06;5309570;28;20138;-77
2022/12/13 02:57:39;;;;;;;30.38;19.50;;;;;;;-7.64;100.00;101020.47;5327964;28;20524;-75
2022/12/13 03:00:34;;;;;;;38.13;19.20;;;;;;;-7.67;100.00;101011.00;5326800;28;20412;-76
2022/12/13 03:03:23;;;;;;;32.83;20.85;;;;;;;-7.66;100.00;101005.16;5327656;28;20031;-76
2022/12/13 03:06:28;;;;;;;36.35;21.20;;;;;;;-7.66;100.00;101002.63;5328128;28;20023;-76
2022/12/13 03:09:08;;;;;;;41.80;20.75;;;;;;;-7.70;100.00;101006.59;5328617;28;20106;-75
2022/12/13 03:15:28;;;;;;;30.15;20.23;;;;;;;-7.76;100.00;100996.13;5327773;28;20455;-75
2022/12/13 03:18:03;;;;;;;36.63;20.67;;;;;;;-7.72;100.00;101008.16;5327542;28;20390;-75
2022/12/13 03:20:34;;;;;;;38.88;20.95;;;;;;;-7.74;100.00;101006.34;5327280;28;20039;-76
2022/12/13 03:23:09;;;;;;;38.83;22.17;;;;;;;-7.71;100.00;101015.00;5309761;28;20036;-76
2022/12/13 03:25:41;;;;;;;39.35;23.65;;;;;;;-7.70;100.00;101011.66;5305591;28;20060;-77
2022/12/13 03:28:12;;;;;;;35.92;20.92;;;;;;;-7.69;100.00;101002.44;5287729;28;20110;-76
2022/12/13 03:30:44;;;;;;;39.83;23.30;;;;;;;-7.58;100.00;101001.47;5313094;28;20458;-76
2022/12/13 03:33:16;;;;;;;35.50;22.60;;;;;;;-7.61;100.00;101015.59;5308255;28;20186;-76
2022/12/13 03:35:48;;;;;;;43.20;24.23;;;;;;;-7.62;100.00;101008.75;5308341;28;20288;-75
2022/12/13 03:38:19;;;;;;;42.20;23.38;;;;;;;-7.63;100.00;101009.53;5326459;28;20027;-75
2022/12/13 03:40:54;;;;;;;44.33;23.70;;;;;;;-7.56;100.00;101007.50;5326769;28;20036;-76
2022/12/13 03:43:26;;;;;;;37.17;22.35;;;;;;;-7.60;100.00;101008.09;5326568;28;20077;-75
2022/12/13 03:45:58;;;;;;;44.40;22.88;;;;;;;-7.62;100.00;101003.69;5326844;28;20028;-76
2022/12/13 03:48:29;;;;;;;36.27;21.47;;;;;;;-7.64;100.00;101000.22;5326554;28;20035;-76
2022/12/13 03:51:01;;;;;;;38.87;23.50;;;;;;;-7.69;100.00;100997.38;5326402;28;20059;-76
2022/12/13 03:53:33;;;;;;;35.85;22.58;;;;;;;-7.72;100.00;101000.56;5327023;28;20023;-76
2022/12/13 03:56:05;;;;;;;40.70;23.20;;;;;;;-7.70;100.00;100990.53;5307970;28;20180;-77
2022/12/13 03:58:37;;;;;;;41.90;21.67;;;;;;;-7.71;100.00;100999.81;5326633;28;20020;-76
2022/12/13 04:01:12;;;;;;;36.40;22.42;;;;;;;-7.69;100.00;100997.38;5326756;28;20046;-76
2022/12/13 04:03:45;;;;;;;35.72;21.48;;;;;;;-7.76;100.00;100997.75;5327171;28;20035;-77
2022/12/13 04:06:17;;;;;;;37.67;22.35;;;;;;;-7.70;100.00;100996.47;5327070;28;20035;-77
2022/12/13 04:08:49;;;;;;;29.80;18.87;;;;;;;-7.72;100.00;100995.50;5327338;28;20028;-77
2022/12/13 04:14:10;;;;;;;46.83;23.80;;;;;;;-7.60;100.00;100992.91;5326729;28;20043;-76
2022/12/13 04:16:42;;;;;;;37.33;23.40;;;;;;;-7.63;100.00;100995.25;5326878;28;20458;-77
2022/12/13 04:19:13;;;;;;;37.10;22.47;;;;;;;-7.61;100.00;100986.09;5307955;28;20046;-76
2022/12/13 04:21:45;;;;;;;39.13;23.93;;;;;;;-7.58;100.00;100980.31;5326477;28;20032;-77
2022/12/13 04:24:16;;;;;;;40.53;23.87;;;;;;;-7.54;100.00;100982.28;5326372;28;20035;-77
2022/12/13 04:26:47;;;;;;;39.40;22.80;;;;;;;-7.58;100.00;100983.75;5325921;28;20141;-77
2022/12/13 04:29:19;;;;;;;40.40;23.60;;;;;;;-7.61;100.00;100985.22;5307788;28;20535;-78
2022/12/13 04:31:50;;;;;;;41.27;23.77;;;;;;;-7.64;100.00;100980.81;5326344;28;20160;-78
2022/12/13 04:34:22;;;;;;;42.67;24.10;;;;;;;-7.59;100.00;100986.19;5327072;28;20051;-76
2022/12/13 04:36:53;;;;;;;37.00;22.17;;;;;;;-7.63;100.00;100987.66;5329405;28;20091;-78
2022/12/13 04:39:25;;;;;;;38.20;22.60;;;;;;;-7.57;100.00;100982.94;5334251;28;20042;-78
2022/12/13 04:41:56;;;;;;;39.13;22.83;;;;;;;-7.48;100.00;100980.13;5328070;28;20131;-77
2022/12/13 04:44:28;;;;;;;39.27;22.47;;;;;;;-7.51;100.00;100977.41;5308314;28;20040;-77
2022/12/13 04:47:01;;;;;;;41.50;23.50;;;;;;;-7.54;100.00;100972.16;5326481;28;20032;-78
2022/12/13 04:49:33;;;;;;;43.28;22.92;;;;;;;-7.62;100.00;100974.19;5325605;28;20575;-78
2022/12/13 04:52:05;;;;;;;43.63;24.30;;;;;;;-7.65;100.00;100968.94;5307993;28;20059;-77
2022/12/13 04:54:36;;;;;;;42.83;22.90;;;;;;;-7.65;100.00;100968.06;5326019;28;20032;-77
2022/12/13 04:57:10;;;;;;;41.20;23.90;;;;;;;-7.66;100.00;100971.38;5308062;28;20036;-76
2022/12/13 04:59:41;;;;;;;41.08;24.23;;;;;;;-7.69;100.00;100972.06;5325273;28;20034;-76
2022/12/13 05:02:13;;;;;;;42.30;23.07;;;;;;;-7.72;100.00;100966.81;5307389;28;20023;-76
2022/12/13 05:04:45;;;;;;;40.87;24.20;;;;;;;-7.76;100.00;100969.91;5325789;28;20032;-76
2022/12/13 05:07:16;;;;;;;37.97;22.80;;;;;;;-7.76;100.00;100965.75;5274416;28;20030;-77
2022/12/13 05:09:48;;;;;;;45.60;24.47;;;;;;;-7.75;100.00;100971.66;5325770;28;20042;-77
2022/12/13 05:12:19;;;;;;;45.17;24.63;;;;;;;-7.72;100.00;100974.41;5325641;28;20122;-77
2022/12/13 05:14:52;;;;;;;41.23;24.37;;;;;;;-7.81;100.00;100974.66;5325466;28;20028;-76
2022/12/13 05:17:23;;;;;;;38.95;23.55;;;;;;;-7.78;100.00;100968.94;5325292;28;20019;-77
2022/12/13 05:19:55;;;;;;;30.80;18.60;;;;;;;-7.82;100.00;100967.88;5325914;28;20425;-77
2022/12/13 05:22:26;;;;;;;37.57;21.90;;;;;;;-7.91;100.00;100963.09;5307623;28;20066;-77
2022/12/13 05:24:57;;;;;;;40.73;24.63;;;;;;;-7.91;100.00;100960.56;5325633;28;20063;-77
2022/12/13 05:27:29;;;;;;;40.03;24.50;;;;;;;-7.93;100.00;100958.72;5325569;28;20107;-77
2022/12/13 05:30:00;;;;;;;41.33;23.23;;;;;;;-8.04;100.00;100952.09;5324665;28;20518;-75
2022/12/13 05:32:33;;;;;;;38.97;22.27;;;;;;;-8.06;100.00;100957.91;5325681;28;20470;-74
2022/12/13 05:35:05;;;;;;;41.80;24.80;;;;;;;-8.02;100.00;100953.06;5324856;28;20031;-76
2022/12/13 05:37:36;;;;;;;39.28;23.58;;;;;;;-8.08;100.00;100951.03;5326785;28;20039;-75
2022/12/13 05:40:09;;;;;;;40.87;22.00;;;;;;;-8.09;100.00;100952.66;5325981;28;20039;-75
2022/12/13 05:42:40;;;;;;;45.83;24.52;;;;;;;-8.14;100.00;100951.50;5326136;28;20056;-74
2022/12/13 05:45:12;;;;;;;40.83;23.07;;;;;;;-8.13;100.00;100948.19;5286437;28;20113;-75
2022/12/13 05:47:43;;;;;;;37.70;23.27;;;;;;;-8.10;100.00;100952.56;5303946;28;20043;-75
2022/12/13 05:50:16;;;;;;;44.23;24.23;;;;;;;-8.07;100.00;100948.56;5304007;28;20032;-75
2022/12/13 05:52:47;;;;;;;;;;;;;;;-8.15;100.00;100946.34;5305155;28;20043;-74
2022/12/13 05:55:19;;;;;;;38.45;21.98;;;;;;;-8.09;100.00;100939.16;5304610;28;19916;-75
2022/12/13 05:57:50;;;;;;;42.07;22.97;;;;;;;-8.12;100.00;100939.81;5307945;28;20032;-75
2022/12/13 06:00:22;;;;;;;44.50;24.77;;;;;;;-8.10;100.00;100934.84;5307881;28;20424;-74
2022/12/13 06:02:53;;;;;;;42.33;23.33;;;;;;;-8.14;100.00;100946.44;5290581;28;20032;-74
2022/12/13 06:05:25;;;;;;;29.53;18.43;;;;;;;-8.19;100.00;100942.72;5309210;28;20367;-74
2022/12/13 06:07:56;;;;;;;40.73;25.13;;;;;;;-8.10;100.00;100943.34;5306541;28;20035;-74
2022/12/13 06:10:28;;;;;;;48.67;24.87;;;;;;;-8.16;100.00;100950.53;5306332;28;20035;-74
2022/12/13 06:12:59;;;;;;;37.23;19.30;;;;;;;-8.17;100.00;100955.47;5308352;28;20517;-74
2022/12/13 06:15:31;;;;;;;46.07;26.23;;;;;;;-8.15;100.00;100952.25;5307505;28;20028;-75
2022/12/13 06:18:02;;;;;;;45.13;24.73;;;;;;;-8.26;100.00;100956.63;5306185;28;20028;-75
2022/12/13 06:20:34;;;;;;;49.20;25.10;;;;;;;-8.21;100.00;100959.47;5307816;28;20089;-75
2022/12/13 06:23:05;;;;;;;44.03;23.50;;;;;;;-8.20;100.00;100947.69;5307138;28;20032;-75
2022/12/13 06:25:37;;;;;;;43.80;23.60;;;;;;;-8.28;100.00;100943.00;5307770;28;20028;-75
2022/12/13 06:28:08;;;;;;;44.67;25.27;;;;;;;-8.26;100.00;100946.53;5307698;28;20103;-74
2022/12/13 06:30:39;;;;;;;34.00;19.67;;;;;;;-8.25;100.00;100953.31;5289884;28;20116;-75
2022/12/13 06:33:11;;;;;;;42.50;24.37;;;;;;;-8.18;100.00;100947.00;5308160;28;20062;-74
2022/12/13 06:35:42;;;;;;;43.40;24.13;;;;;;;-8.20;100.00;100958.69;5309054;28;20032;-75
2022/12/13 06:38:14;;;;;;;44.03;23.40;;;;;;;-8.28;100.00;100950.56;5314557;28;20038;-75
2022/12/13 06:40:45;;;;;;;47.90;25.57;;;;;;;-8.17;100.00;100946.22;5319803;28;20036;-74
2022/12/13 06:43:20;;;;;;;43.07;25.83;;;;;;;-8.25;100.00;100954.97;5302160;28;20036;-75
2022/12/13 06:45:52;;;;;;;47.17;25.10;;;;;;;-8.22;100.00;100959.38;5319966;28;20028;-74
2022/12/13 06:48:23;;;;;;;43.30;24.60;;;;;;;-8.18;100.00;100958.78;5315831;28;20534;-75
2022/12/13 06:50:59;;;;;;;50.83;26.87;;;;;;;-8.21;100.00;100949.34;5312913;28;20070;-76
2022/12/13 06:53:31;;;;;;;49.25;27.42;;;;;;;-8.08;100.00;100949.38;5311662;28;20082;-75
2022/12/13 06:56:13;;;;;;;49.97;27.95;;;;;;;-8.03;100.00;100951.28;5311396;28;20040;-75
2022/12/13 06:58:44;;;;;;;45.30;26.73;;;;;;;-7.96;100.00;100940.81;5293475;28;20132;-76
2022/12/13 07:01:17;;;;;;;53.10;26.87;;;;;;;-7.90;100.00;100956.38;5311007;28;20071;-76
2022/12/13 07:03:49;;;;;;;50.75;28.65;;;;;;;-7.94;100.00;100950.22;5312010;28;20082;-76
2022/12/13 07:06:22;;;;;;;52.27;27.83;;;;;;;-7.88;100.00;100952.28;5307279;28;20028;-76
2022/12/13 07:08:56;;;;;;;55.58;28.75;;;;;;;-7.88;100.00;100950.63;5307382;28;20024;-75
2022/12/13 07:11:31;;;;;;;53.38;28.02;;;;;;;-7.86;100.00;100948.19;5309245;28;20092;-75
2022/12/13 07:14:03;;;;;;;62.05;30.15;;;;;;;-7.87;100.00;100951.53;5307074;28;20043;-75
2022/12/13 07:16:34;;;;;;;59.17;31.63;;;;;;;-7.86;100.00;100949.88;5307523;28;20392;-76
2022/12/13 07:19:06;;;;;;;61.47;28.50;;;;;;;-7.88;100.00;100947.22;5307062;28;20042;-75
2022/12/13 07:21:38;;;;;;;50.80;28.93;;;;;;;-7.92;100.00;100947.81;5308152;28;20028;-76
2022/12/13 07:24:10;;;;;;;51.65;29.13;;;;;;;-7.96;100.00;100945.88;5309485;28;20031;-76
2022/12/13 07:26:41;;;;;;;57.85;31.88;;;;;;;-7.97;100.00;100951.69;5317884;28;20032;-76
2022/12/13 07:29:13;;;;;;;62.70;29.80;;;;;;;-7.93;100.00;100951.13;5316822;28;20032;-75
2022/12/13 07:31:44;;;;;;;53.83;29.50;;;;;;;-7.90;100.00;100948.78;5313758;28;20081;-74
2022/12/13 07:34:16;;;;;;;60.87;31.43;;;;;;;-7.82;100.00;100940.03;5313963;28;20035;-75
2022/12/13 07:36:50;;;;;;;62.20;29.83;;;;;;;-7.84;100.00;100951.72;5313070;28;20040;-75
2022/12/13 07:39:25;;;;;;;55.80;31.33;;;;;;;-7.79;100.00;100950.34;5311859;28;20031;-75
2022/12/13 07:41:56;;;;;;;63.22;31.02;;;;;;;-7.87;100.00;100956.59;5313043;28;20032;-74
2022/12/13 07:44:28;;;;;;;62.00;33.97;;;;;;;-7.82;100.00;100955.22;5308772;28;20089;-74
2022/12/13 07:46:59;;;;;;;65.17;30.60;;;;;;;-7.88;100.00;100953.16;5321956;28;20077;-74
2022/12/13 07:49:30;;;;;;;58.17;30.37;;;;;;;-7.85;100.00;100956.69;5320941;28;20027;-74
2022/12/13 07:52:02;;;;;;;56.77;30.53;;;;;;;-7.83;100.00;100966.09;5312114;28;20055;-74
2022/12/13 07:54:33;;;;;;;79.47;31.70;;;;;;;-7.74;100.00;100968.38;5312289;28;20016;-74
2022/12/13 07:57:05;;;;;;;73.80;33.80;;;;;;;-7.72;100.00;100967.66;5310217;28;20032;-74
2022/12/13 07:59:36;;;;;;;71.00;31.77;;;;;;;-7.76;100.00;100970.81;5311473;28;20108;-76
2022/12/13 08:02:12;;;;;;;65.33;32.47;;;;;;;-7.66;100.00;100971.38;5309838;28;20114;-76
2022/12/13 08:04:43;;;;;;;55.35;32.28;;;;;;;-7.56;100.00;100963.59;5308072;28;20024;-76
2022/12/13 08:07:14;;;;;;;59.87;34.13;;;;;;;-7.51;100.00;100960.56;5307545;28;20134;-75
2022/12/13 08:09:46;;;;;;;76.10;34.90;;;;;;;-7.40;100.00;100958.69;5307247;28;20089;-75
2022/12/13 08:12:17;;;;;;;62.07;33.90;;;;;;;-7.42;100.00;100962.81;5271565;28;20040;-75
2022/12/13 08:14:48;;;;;;;60.73;33.57;;;;;;;-7.31;100.00;100963.44;5306697;28;20375;-74
2022/12/13 08:17:20;;;;;;;55.40;28.40;;;;;;;-7.22;100.00;100958.94;5307474;28;20368;-73
2022/12/13 08:19:52;;;;;;;63.53;34.83;;;;;;;-7.13;100.00;100966.25;5307541;28;20115;-73
2022/12/13 08:22:24;;;;;;;65.90;36.37;;;;;;;-7.05;100.00;100967.59;5308985;28;20024;-75
2022/12/13 08:24:55;;;;;;;65.63;36.65;;;;;;;-6.93;100.00;100959.00;5310849;28;20471;-74
2022/12/13 08:27:27;;;;;;;68.67;37.47;;;;;;;-6.86;100.00;100966.16;5308620;28;20047;-75
2022/12/13 08:29:59;;;;;;;60.63;31.20;;;;;;;-6.70;100.00;100973.91;5313265;28;20039;-74
2022/12/13 08:32:30;;;;;;;72.90;38.00;;;;;;;-6.58;100.00;100968.69;5313301;28;20032;-74
2022/12/13 08:35:01;;;;;;;71.87;38.27;;;;;;;-6.54;100.00;100968.06;5310636;28;20119;-75
2022/12/13 08:37:33;;;;;;;78.73;39.00;;;;;;;-6.45;100.00;100970.28;5309092;28;20089;-75
2022/12/13 08:40:05;;;;;;;72.73;38.17;;;;;;;-6.32;100.00;100974.44;5309795;28;20072;-75
2022/12/13 08:42:36;;;;;;;73.63;40.33;;;;;;;-6.18;100.00;100970.13;5310370;28;20032;-74
2022/12/13 08:45:08;;;;;;;70.67;38.07;;;;;;;-6.07;100.00;100964.00;5307871;28;20054;-74
2022/12/13 08:47:40;;;;;;;72.32;39.15;;;;;;;-5.96;100.00;100977.31;5307073;28;20036;-75
2022/12/13 08:50:11;;;;;;;75.37;36.90;;;;;;;-5.88;100.00;100971.84;5306306;28;20111;-74
2022/12/13 08:52:43;;;;;;;74.27;39.97;;;;;;;-5.74;100.00;100976.84;5305532;28;20052;-74
2022/12/13 08:55:15;;;;;;;71.05;39.78;;;;;;;-5.64;100.00;100983.31;5305022;28;20043;-74
2022/12/13 08:57:46;;;;;;;66.70;38.67;;;;;;;-5.50;100.00;100987.50;5304832;28;20502;-74
2022/12/13 09:00:19;;;;;;;72.47;38.40;;;;;;;-5.25;100.00;100997.31;5304128;28;20032;-74
2022/12/13 09:02:50;;;;;;;72.13;39.78;;;;;;;-4.98;100.00;100990.28;5304653;28;20032;-74
2022/12/13 09:05:21;;;;;;;74.73;40.67;;;;;;;-4.69;100.00;100990.97;5304979;28;20034;-74
2022/12/13 09:07:57;;;;;;;71.90;39.60;;;;;;;-4.41;100.00;100988.19;5287134;28;20487;-74
2022/12/13 09:10:29;;;;;;;71.45;38.80;;;;;;;-4.34;100.00;100983.41;5304420;28;20043;-75
2022/12/13 09:13:01;;;;;;;62.60;34.70;;;;;;;-4.35;100.00;100986.75;5303845;28;20024;-75
2022/12/13 09:15:32;;;;;;;57.63;34.03;;;;;;;-4.34;100.00;100988.50;5303038;28;20036;-74
2022/12/13 09:18:04;;;;;;;57.03;33.80;;;;;;;-4.43;100.00;100981.25;5303999;28;20020;-75
2022/12/13 09:20:36;;;;;;;55.07;32.50;;;;;;;-4.45;100.00;100985.41;5304260;28;20036;-75
2022/12/13 09:23:09;;;;;;;61.00;33.47;;;;;;;-4.38;100.00;100989.13;5302755;28;20020;-74
2022/12/13 09:25:40;;;;;;;55.78;32.72;;;;;;;-4.34;100.00;100988.50;5304508;28;20028;-74
2022/12/13 09:28:11;;;;;;;51.03;30.80;;;;;;;-4.31;100.00;100992.06;5303247;28;20064;-75
2022/12/13 09:30:43;;;;;;;52.40;32.97;;;;;;;-4.33;100.00;100988.56;5304062;28;20089;-75
2022/12/13 09:33:15;;;;;;;50.63;30.87;;;;;;;-4.22;100.00;100984.00;5308397;28;20435;-75
2022/12/13 09:35:46;;;;;;;51.93;31.07;;;;;;;-4.04;100.00;100986.63;5307194;28;20114;-74
2022/12/13 09:38:18;;;;;;;49.40;30.97;;;;;;;-3.88;100.00;100990.75;5309226;28;20123;-74
2022/12/13 09:40:52;;;;;;;55.47;31.87;;;;;;;-3.68;100.00;100992.63;5309966;28;20039;-74
2022/12/13 09:43:28;;;;;;;49.22;29.90;;;;;;;-3.56;100.00;100994.91;5313863;28;20035;-76
2022/12/13 09:46:06;;;;;;;47.58;29.35;;;;;;;-3.27;100.00;100989.41;5311618;28;20032;-75
2022/12/13 09:48:37;;;;;;;47.40;30.25;;;;;;;-3.06;100.00;100989.50;5311056;28;20028;-75
2022/12/13 09:51:10;;;;;;;51.17;29.37;;;;;;;-2.88;100.00;100992.03;5310489;28;20384;-77
2022/12/13 09:53:42;;;;;;;46.75;31.30;;;;;;;-2.58;100.00;100984.84;5309415;28;20043;-77
2022/12/13 09:56:14;;;;;;;45.28;30.58;;;;;;;-2.45;100.00;100978.59;5311624;28;20020;-77
2022/12/13 09:58:55;;;;;;;42.20;27.83;;;;;;;-2.13;100.00;100979.09;5308433;28;20119;-78
2022/12/13 10:01:26;;;;;;;45.17;29.20;;;;;;;-1.86;100.00;100979.38;5307804;28;20531;-78
2022/12/13 10:04:00;;;;;;;42.53;29.00;;;;;;;-1.62;99.41;100979.50;5307149;28;20036;-75
2022/12/13 10:06:33;;;;;;;40.30;27.35;;;;;;;-1.36;97.56;100982.19;5308396;28;20107;-75
2022/12/13 10:09:09;;;;;;;38.85;26.38;;;;;;;-1.26;95.10;100976.59;5307992;28;20117;-76
2022/12/13 10:11:49;;;;;;;39.00;26.73;;;;;;;-1.04;93.72;100970.63;5308038;28;20035;-75
2022/12/13 10:14:32;;;;;;;40.97;27.13;;;;;;;-0.69;93.60;100970.16;5307388;28;20051;-76
2022/12/13 10:17:08;;;;;;;38.95;25.30;;;;;;;-0.57;90.52;100962.94;5307485;28;20332;-76
2022/12/13 10:19:42;;;;;;;37.58;24.45;;;;;;;-0.53;88.33;100957.13;5306965;28;20104;-76
2022/12/13 10:22:15;;;;;;;38.90;25.83;;;;;;;-0.33;88.06;100957.78;5306783;28;20103;-76
2022/12/13 10:25:04;;;;;;;35.88;25.52;;;;;;;-0.10;86.67;100968.81;5307364;28;20169;-76
2022/12/13 10:27:39;;;;;;;37.28;25.17;;;;;;;-0.28;85.35;100973.31;5307349;28;20107;-77
2022/12/13 10:30:20;;;;;;;38.55;25.63;;;;;;;-0.22;83.17;100950.47;5307032;28;20028;-76
2022/12/13 10:33:02;;;;;;;37.35;24.63;;;;;;;-0.22;82.77;100942.78;5307942;28;20059;-76
2022/12/13 10:35:37;;;;;;;36.92;24.83;;;;;;;0.06;82.84;100949.69;5307106;28;20056;-76
2022/12/13 10:38:09;;;;;;;38.22;24.67;;;;;;;0.45;82.25;100940.66;5307302;28;20442;-77
2022/12/13 10:40:47;;;;;;;36.50;26.58;;;;;;;0.85;80.14;100936.72;5308009;28;20028;-78
2022/12/13 10:43:19;;;;;;;33.67;24.02;;;;;;;0.81;80.31;100942.59;5309738;28;20040;-77
2022/12/13 10:45:57;;;;;;;34.22;23.48;;;;;;;0.78;78.52;100943.38;5308876;28;20035;-77
2022/12/13 10:48:45;;;;;;;34.90;24.58;;;;;;;1.11;78.60;100937.44;5309128;28;20088;-77
2022/12/13 10:51:20;;;;;;;39.15;23.67;;;;;;;1.44;76.31;100940.09;5309227;28;20380;-77
2022/12/13 10:54:00;;;;;;;33.63;22.35;;;;;;;1.72;74.68;100930.53;5316630;28;20039;-77
2022/12/13 10:56:48;;;;;;;33.45;22.50;;;;;;;2.40;73.96;100918.44;5324321;28;20028;-77
2022/12/13 10:59:19;;;;;;;28.73;21.85;;;;;;;2.79;70.33;100915.88;5318162;28;20032;-77
2022/12/13 11:01:51;;;;;;;29.53;22.10;;;;;;;3.33;70.88;100914.34;5315112;28;20038;-76
2022/12/13 11:04:33;;;;;;;30.53;20.63;;;;;;;3.12;68.97;100908.81;5312831;28;20082;-76
2022/12/13 11:07:23;;;;;;;31.45;23.13;;;;;;;3.43;68.92;100908.56;5314203;28;20020;-77
2022/12/13 11:10:13;;;;;;;29.27;22.60;;;;;;;3.15;66.45;100902.00;5313992;28;20020;-76
2022/12/13 11:12:46;;;;;;;33.88;22.73;;;;;;;3.44;65.53;100907.69;5313275;28;20020;-76
2022/12/13 11:15:21;;;;;;;32.65;23.33;;;;;;;4.05;64.61;100899.28;5312979;28;20028;-76
2022/12/13 11:18:22;;;;;;;29.77;22.17;;;;;;;4.54;64.94;100889.69;5311895;28;20032;-76
2022/12/13 11:21:00;;;;;;;30.48;21.25;;;;;;;4.09;61.24;100889.88;5310429;28;20082;-76
2022/12/13 11:23:38;;;;;;;29.58;20.30;;;;;;;3.75;59.70;100902.22;5311901;28;20031;-77
2022/12/13 11:26:17;;;;;;;28.42;20.73;;;;;;;3.05;60.83;100895.81;5310622;28;20474;-77
2022/12/13 11:29:11;;;;;;;27.30;20.08;;;;;;;2.86;61.79;100898.84;5310368;28;20479;-76
2022/12/13 11:32:01;;;;;;;28.33;19.33;;;;;;;2.89;63.31;100888.63;5310156;28;20070;-76
2022/12/13 11:34:48;;;;;;;26.58;20.70;;;;;;;2.60;63.28;100881.16;5307798;28;20031;-76
2022/12/13 11:37:59;;;;;;;27.48;19.23;;;;;;;2.75;63.56;100888.31;5307869;28;20036;-76
2022/12/13 11:40:33;;;;;;;29.38;19.75;;;;;;;2.07;62.48;100880.84;5306839;28;20055;-76
2022/12/13 11:43:25;;;;;;;32.63;20.38;;;;;;;1.81;63.87;100894.78;5306888;28;20025;-77